Address 0xa3b38473d68ee24944460db501bc98e2daab8264

 
Txn Hash Method
Block
From
To
Value [Txn Fee]
0x3fbae52d02fcf91f62018e70604982eacad9c70b0cb4eff27ff33ecaccb205730x1de9c881112758942021-09-27 9:38:2232 mins ago0xa3b38473d68ee24944460db501bc98e2daab8264OUT 0x7fa79b3229408971f6744e8d34503a528fed70cb0 BNB0.000258034
0x771059cb00cc99fe8457015723ca8429057b984a35b29a894f54b194b4404cf30x1de9c881112745692021-09-27 8:32:061 hr 39 mins ago0xa3b38473d68ee24944460db501bc98e2daab8264OUT 0x7fa79b3229408971f6744e8d34503a528fed70cb0 BNB0.00135765
0x64ab720cda9b26d796f4640d23784cf30e1f03c37c7f42cf0080e719cc9e396b0x1de9c881112735322021-09-27 7:39:042 hrs 32 mins ago0xa3b38473d68ee24944460db501bc98e2daab8264OUT 0x5f5090dce7617e5f94182fb04a087f563b286ab80 BNB0.000184135
0x04a67fde506b2a8e7400affb93a23828ee7cddb8d6a0a261170621c1f94d9abc0x1de9c881112707892021-09-27 5:19:314 hrs 51 mins ago0xa3b38473d68ee24944460db501bc98e2daab8264OUT 0x7fa79b3229408971f6744e8d34503a528fed70cb0 BNB0.000220895
0x0ce497a33881817f0af89fe10aaeb06ec038e76ffa98cce76bb1a49dfde8a56e0x1de9c881112706562021-09-27 5:12:484 hrs 58 mins ago0xa3b38473d68ee24944460db501bc98e2daab8264OUT 0xd27ccd5ce8f90d2a30c96aa8c68b5c116a978e540 BNB0.000220955
0x03709cffebe3ef6ec95c5087b123613867b6f46910bc336916c26a3dfd5bbf000x1de9c881112706482021-09-27 5:12:244 hrs 58 mins ago0xa3b38473d68ee24944460db501bc98e2daab8264OUT 0xd27ccd5ce8f90d2a30c96aa8c68b5c116a978e540 BNB0.000309253
0xff13628c78d7926fddb117a249f908e46568ee8bda76255f23578ae49ccf9761Transfer112702542021-09-27 4:52:425 hrs 18 mins ago0xa3b38473d68ee24944460db501bc98e2daab8264SELF0xa3b38473d68ee24944460db501bc98e2daab82640 BNB0.00011655
0x320551284be0dfa1a4d3b6c7f96b4c72c9fd0bf8953862a9acf1b25fed976b3f0x1de9c881112698412021-09-27 4:32:035 hrs 39 mins ago0xa3b38473d68ee24944460db501bc98e2daab8264OUT 0xd27ccd5ce8f90d2a30c96aa8c68b5c116a978e540 BNB0.000211955
0x6bbfd674a0e6aad7120f431688d4f626dcf28af5758c4bb7a70694ed56fcdbf0Transfer112665792021-09-27 1:44:328 hrs 26 mins ago0xa3b38473d68ee24944460db501bc98e2daab8264SELF0xa3b38473d68ee24944460db501bc98e2daab82640 BNB0.00011655
0xdf82ebe4060ff14f3cf3662384e175e9a95c38d4e73f51367fd81483be3e12ba0x1de9c881112644452021-09-26 23:56:0910 hrs 15 mins ago0xa3b38473d68ee24944460db501bc98e2daab8264OUT 0x5f5090dce7617e5f94182fb04a087f563b286ab80 BNB0.000212325
0x7b148f9089143066d562cd665bc65c939ac868a31079657d2c7e9a9f39a99f710x1de9c881112644352021-09-26 23:55:3910 hrs 15 mins ago0xa3b38473d68ee24944460db501bc98e2daab8264OUT 0xd27ccd5ce8f90d2a30c96aa8c68b5c116a978e540 BNB0.000203675
0xcff8c1400f722696291057a62b247905b16a93c3970f07f31db8688b8b12c0670x1de9c881112616962021-09-26 21:38:3112 hrs 32 mins ago0xa3b38473d68ee24944460db501bc98e2daab8264OUT 0xd27ccd5ce8f90d2a30c96aa8c68b5c116a978e540 BNB0.001395973704
0xd79a4568195a760d6b8fbf8d8aa02bf6a4e82b61ef44bfa1e58d10d180bcc4c80x1de9c881112595352021-09-26 19:49:0414 hrs 22 mins ago0xa3b38473d68ee24944460db501bc98e2daab8264OUT 0x7fa79b3229408971f6744e8d34503a528fed70cb0 BNB0.00018396
0xb85fbf7b1e95bf152371b0772d4d22fb7a2e52defa17315a01997432407d10eaTransfer112578192021-09-26 18:23:0915 hrs 48 mins ago0xa3b38473d68ee24944460db501bc98e2daab8264SELF0xa3b38473d68ee24944460db501bc98e2daab82640 BNB0.00011655
0x16b608e199a5fadfeb6ba5fcd14b49ae6676eff996a858aeab3b5cf3df5013b00x1de9c881112562962021-09-26 17:06:2417 hrs 4 mins ago0xa3b38473d68ee24944460db501bc98e2daab8264OUT 0xd27ccd5ce8f90d2a30c96aa8c68b5c116a978e540 BNB0.0002346255
0xec37f5300f7d6a1c0d25c4011dd1aed36488a609afdab479720513fec3a9e25fTransfer112562662021-09-26 17:04:5417 hrs 6 mins ago0xa3b38473d68ee24944460db501bc98e2daab8264SELF0xa3b38473d68ee24944460db501bc98e2daab82640 BNB0.00016317
0xd0e16b9e034549d3079ec8fe72675ba86c65bfe49dd94febbf4226fc8a27d65fTransfer112558752021-09-26 16:45:0817 hrs 26 mins ago0xa3b38473d68ee24944460db501bc98e2daab8264SELF0xa3b38473d68ee24944460db501bc98e2daab82640 BNB0.00011655
0xe895d5f6d8a2435fc569c4dd160e567f75505368dc2c1f1569caa179135fe7b6Transfer112556392021-09-26 16:33:2017 hrs 37 mins ago0xa3b38473d68ee24944460db501bc98e2daab8264SELF0xa3b38473d68ee24944460db501bc98e2daab82640 BNB0.00011655
0x9632e6ea4c949566d6942788810bc527f13537f7e4437be20d6395e4971427cd0x1de9c881112527532021-09-26 14:07:2320 hrs 3 mins ago0xa3b38473d68ee24944460db501bc98e2daab8264OUT 0xd27ccd5ce8f90d2a30c96aa8c68b5c116a978e540 BNB0.000220955
0xfe0ebada2538688efa105535f01209ba8d76ad9da51671fc16abf9c674696e750x1de9c881112527152021-09-26 14:05:2920 hrs 5 mins ago0xa3b38473d68ee24944460db501bc98e2daab8264OUT 0x2a23ccee45fc2160de7693fcbc53e429536713bd0 BNB0.000230025
0x5f7b957d5419502bb7ebfe740f80b8ef27812103ba7e6f8b673cf92b6824494c0x1de9c881112526642021-09-26 14:02:5620 hrs 8 mins ago0xa3b38473d68ee24944460db501bc98e2daab8264OUT 0x7fa79b3229408971f6744e8d34503a528fed70cb0 BNB0.000220855
0xe24d42465ae7530b96ee5d6ebc5e008a685d85a06c5acd7ec9deceabfe1c2da10x1de9c881112511792021-09-26 12:48:2521 hrs 22 mins ago0xa3b38473d68ee24944460db501bc98e2daab8264OUT 0x2a23ccee45fc2160de7693fcbc53e429536713bd0 BNB0.000221245
0xc113369da8daa43e5d207aa1fbdcad25245e8a047ed984bd0e6fe83a46b3fc870x1de9c881112504912021-09-26 12:13:4921 hrs 57 mins ago0xa3b38473d68ee24944460db501bc98e2daab8264OUT 0x7fa79b3229408971f6744e8d34503a528fed70cb0 BNB0.000221305
0xff9589b091e227b9857fd66d7a03635bcef33a990e1056ee64060235852445b90x1de9c881112501302021-09-26 11:55:3122 hrs 15 mins ago0xa3b38473d68ee24944460db501bc98e2daab8264OUT 0xd27ccd5ce8f90d2a30c96aa8c68b5c116a978e540 BNB0.00022119
0xdb0b66e6125e637835cfb7a0d38332314ef32b4f599976bfbdd7bc1d7c1c60a90x1de9c881112476022021-09-26 9:47:341 day 23 mins ago0xa3b38473d68ee24944460db501bc98e2daab8264OUT 0xd27ccd5ce8f90d2a30c96aa8c68b5c116a978e540 BNB0.000288332983
[ Download CSV Export 
Parent Txn Hash Block From To Value
Loading

Contract Name:
0 BNB

Compiler Version
0

Optimization Enabled:
0 BNB

Other Settings:
-NA-
Block Transaction Gas Used Reward
Age Block Fee Address BC Fee Address Voting Power Jailed Incoming
Block Uncle Number Difficulty Gas Used Reward
Loading
Loading
Make sure to use the "Vote Down" button for any spammy posts, and the "Vote Up" for interesting conversations.